PAJN/JNU METAR and TAF weather

Enter ICAO airport designator
Station Type Date Time Source
PAJN METAR 2020/07/06 08:53 UTC NOAA

PAJN 060853Z 07004KT 10SM OVC060 14/11 A3009 RMK AO2 SLP189 T01390106 401830111 58001


Station Type Date Time Source
PAJN Decoded METAR 2020/07/06 08:53 UTC NOAA

JUNEAU INTERNATIONAL AIRPORT, AK, United States (PAJN) 58-21N 134-34W 8M
Jul 06, 2020 - 04:53 AM EDT / 2020.07.06 0853 UTC
Wind: from the ENE (070 degrees) at 5 MPH (4 KT):0
Visibility: 10 mile(s):0
Sky conditions: overcast
Temperature: 57.0 F (13.9 C)
Dew Point: 51.1 F (10.6 C)
Relative Humidity: 80%
Pressure (altimeter): 30.09 in. Hg (1018 hPa)
Pressure tendency: 0.00 inches (0.1 hPa) lower than three hours ago
ob: PAJN 060853Z 07004KT 10SM OVC060 14/11 A3009 RMK AO2 SLP189 T01390106 401830111 58001
cycle: 9

Station Type Date Time Source
PAJN TAF 2020/07/06 06:39 UTC NOAA

TAF PAJN 060537Z 0606/0706 08005KT P6SM FEW035 BKN050 OVC250
FM060800 13004KT P6SM OVC050
FM061900 24007KT P6SM OVC050

Example: see airport list